• Join FlightAware (Why Join?)
  • Login
  • US Flag 
12:11PM EDT


 

Airport Tracker/Info


-or-


 

Live Flight TrackerFlight Track Log ✈ EJA922 ✈ 30-Jul-2013 ✈ KPDK - KORD

Flight Track Log - Related Links

Times and Time Zones

All times are in EDT time to prevent confusion due to time zone crossing. See the EJA922 flight status page for this flight to view local times or setup timezone preferences in your user account.

Time Position Orientation Groundspeed Altitude Reporting Facility
EDT Latitude Longitude Course Direction KTS MPH feet Rate Location/Type
06:44PM 33.9333 -84.2833 350° North 213 245 4,000  Level Atlanta TRACON
06:45PM 34.0464 -84.3019 352° North 249 287 9,000 2,280 Climbing Atlanta Center
06:46PM 34.1217 -84.3400 337° Northwest 276 318 10,700 1,500 Climbing Atlanta Center
06:47PM 34.2133 -84.3781 341° North 323 372 12,000 1,500 Climbing Atlanta Center
06:48PM 34.3008 -84.4058 345° North 353 406 13,700 1,980 Climbing Atlanta Center
06:49PM 34.4365 -84.6229 350° North  Level FlightAware Approximate
06:49PM 34.4072 -84.4367 347° North 378 435 16,000  Level Atlanta Center
06:50PM 34.5094 -84.4647 347° North 378 435 17,900 1,980 Climbing Atlanta Center
06:51PM 34.6117 -84.4956 346° North 372 428 20,000 1,980 Climbing Atlanta Center
06:52PM 34.7158 -84.5264 346° North 372 428 21,900 1,560 Climbing Atlanta Center
06:53PM 34.8178 -84.5600 345° North 372 428 23,200 1,380 Climbing Atlanta Center
06:54PM 34.9242 -84.5911 347° North 377 434 24,700 1,440 Climbing Atlanta Center
06:55PM 35.0325 -84.6247 346° North 387 445 26,100 1,380 Climbing Atlanta Center
06:56PM 35.1431 -84.6586 346° North 399 459 27,500 1,380 Climbing Atlanta Center
06:57PM 35.2556 -84.6925 346° North 404 465 28,900 1,320 Climbing Atlanta Center
06:58PM 35.3700 -84.7264 346° North 409 471 30,200 1,320 Climbing Atlanta Center
06:59PM 35.4847 -84.7581 347° North 415 478 31,600 1,380 Climbing Atlanta Center
07:00PM 35.5992 -84.7947 345° North 415 478 33,000 1,380 Climbing Atlanta Center
07:02PM 35.8222 -84.8603 347° North 445 512 35,600 1,380 Climbing Indianapolis Center
07:03PM 35.9425 -84.8969 346° North 443 510 37,000 1,140 Climbing Indianapolis Center
07:04PM 36.0675 -84.9353 346° North 444 511 38,000 480 Climbing Indianapolis Center
07:05PM 36.1933 -84.9742 346° North 460 529 38,000  Level Indianapolis Center
07:06PM 36.3247 -85.0150 346° North 482 555 38,000  Level Indianapolis Center
07:07PM 36.4878 -85.0497 350° North 493 567 38,000  Level Indianapolis Center
07:08PM 36.6264 -85.0694 353° North 500 575 38,000  Level Indianapolis Center
07:09PM 36.7656 -85.0906 353° North 502 578 38,000  Level Indianapolis Center
07:10PM 36.9047 -85.1119 353° North 504 580 38,000  Level Indianapolis Center
07:12PM 37.0544 -85.1333 353° North 499 574 38,000 180 Level Indianapolis Center
07:13PM 37.1925 -85.1542 353° North 498 573 38,400 780 Climbing Indianapolis Center
07:14PM 37.3267 -85.1747 353° North 487 560 39,600 780 Climbing Indianapolis Center
07:15PM 37.4578 -85.1936 353° North 475 547 40,000 180 Climbing Indianapolis Center
07:16PM 37.5908 -85.2153 353° North 479 551 40,000  Level Indianapolis Center
07:17PM 37.7239 -85.2361 353° North 478 550 40,000  Level Indianapolis Center
07:18PM 37.8697 -85.2572 353° North 482 555 40,000  Level Indianapolis Center
07:19PM 38.0053 -85.2783 353° North 487 560 40,000 -360 Level Indianapolis Center
07:20PM 38.1392 -85.2992 353° North 486 559 39,300 -900 Descending Indianapolis Center
07:21PM 38.2711 -85.3206 353° North 481 554 38,200 -1,260 Descending Indianapolis Center
07:22PM 38.4114 -85.3411 353° North 502 578 36,800 -1,260 Descending Indianapolis Center
07:23PM 38.5556 -85.3642 353° North 519 597 35,700 -900 Descending Indianapolis Center
07:24PM 38.7131 -85.3886 353° North 514 592 35,000 -780 Descending Indianapolis Center
07:25PM 38.8528 -85.4117 353° North 510 587 34,200 -1,020 Descending Indianapolis Center
07:26PM 38.9975 -85.4344 353° North 523 602 33,000 -1,260 Descending Indianapolis Center
07:27PM 39.1439 -85.4583 353° North 531 611 31,700 -1,560 Descending Indianapolis Center
07:28PM 39.3186 -85.4858 353° North 532 612 29,900 -1,620 Descending Indianapolis Center
07:29PM 39.4608 -85.5089 353° North 522 601 28,400 -1,200 Descending Indianapolis Center
07:30PM 39.5861 -85.5294 353° North 451 519 27,500 -1,200 Descending Indianapolis Center
07:31PM 39.6944 -85.5469 353° North 398 458 26,000 -780 Descending Indianapolis Center
07:32PM 39.8008 -85.5644 353° North 389 448 26,000 -480 Level Indianapolis Center
07:33PM 39.9375 -85.5875 353° North 409 471 25,100 -1,020 Descending Indianapolis Center
07:34PM 40.0514 -85.6050 353° North 415 478 24,000 -540 Descending Indianapolis Center
07:35PM 40.1642 -85.6239 353° North 413 475 24,000  Level Indianapolis Center
07:36PM 40.2772 -85.6425 353° North 413 475 24,000  Level Indianapolis Center
07:37PM 40.4108 -85.6636 353° North 407 468 24,000  Level Chicago Center
07:38PM 40.5231 -85.6864 351° North 410 472 24,000 -60 Level Chicago Center
07:39PM 40.6328 -85.7300 343° North 413 475 23,900 -540 Descending Chicago Center
07:40PM 40.7531 -85.7781 343° North 415 478 23,000 -480 Descending Chicago Center
07:41PM 40.8575 -85.8322 339° North 403 464 23,000  Level Chicago Center
07:43PM 40.9183 -85.9519 304° West 395 455 23,000  Level Chicago Center
07:44PM 40.9650 -86.0819 295° West 394 453 23,000  Level Chicago Center
07:45PM 41.0128 -86.2128 296° West 392 451 23,000  Level Chicago Center
07:46PM 41.0697 -86.3700 296° West 394 453 23,000 -480 Level Chicago Center
07:47PM 41.1153 -86.4981 295° West 386 444 22,100 -1,440 Descending Chicago Center
07:48PM 41.1625 -86.6289 296° West 388 447 20,000 -2,040 Descending Chicago Center
07:49PM 41.2092 -86.7600 295° West 393 452 17,900 -2,040 Descending Chicago Center
07:50PM 41.2561 -86.8886 296° West 388 447 15,800 -2,040 Descending Chicago Center
07:51PM 41.3008 -87.0150 295° West 381 438 13,800 -2,160 Descending Chicago Center
07:52PM 41.3506 -87.1572 295° West 357 411 11,400 -1,320 Descending Chicago Center
07:53PM 41.4131 -87.2525 311° West 338 389 11,100 -540 Descending Chicago Center
07:54PM 41.4875 -87.3419 318° Northwest 354 407 10,400 -540 Descending Chicago Center
07:55PM 41.5622 -87.4247 320° Northwest 349 402 10,000 -240 Descending Chicago Center
07:56PM 41.6389 -87.5086 321° Northwest 355 409 10,000 -660 Level Chicago Center
07:57PM 41.7011 -87.5803 319° Northwest 302 348 8,700 -1,440 Descending Chicago Center
07:58PM 41.7753 -87.6636 320° Northwest 290 334 7,100 -780 Descending Chicago Center
07:59PM 41.8367 -87.7236 324° Northwest 284 327 7,100 -60 Level Chicago Center
08:00PM 41.9094 -87.7161 North 254 292 7,000 -60 Descending Chicago Center
08:01PM 41.9794 -87.7186 358° North 252 290 7,000 -720 Level Chicago Center
08:02PM 42.0567 -87.6872 17° North 251 289 5,600 -1,320 Descending Chicago Center
08:03PM 42.1175 -87.6581 20° North 242 278 4,300 -780 Descending Chicago Center
08:04PM 42.1214 -87.7339 274° West 239 275 4,000 -240 Descending Chicago Center
08:05PM 42.1050 -87.8019 252° West 213 245 3,900 -900 Descending Chicago Center
08:07PM 42.0333 -87.8500 206° Southwest 163 188 1,600 -1,140 Descending Chicago TRACON
08:08PM 42.0000 -87.8833 217° Southwest 129 148 900 -660 Descending Chicago TRACON
08:10PM 41.9817 -87.9067 285° West  Level Estimated